Time;durP1;ratioP1;P1;durP2;ratioP2;P2;SDS_P1;SDS_P2;PMS_P1;PMS_P2;Temp;Humidity;BMP_temperature;BMP_pressure;BME280_temperature;BME280_humidity;BME280_pressure;Samples;Min_cycle;Max_cycle;Signal;HPM_P1;HPM_P2
2022/04/08 00:01:34;;;;;;;;;;;;;;;3.90;95.94;99674.22;5046565;28;19951;-75
2022/04/08 00:03:59;;;;;;;;;;;;;;;3.88;94.86;99681.22;5077117;28;19925;-75
2022/04/08 00:06:24;;;;;;;;;;;;;;;3.81;93.54;99678.00;5045214;28;20524;-75
2022/04/08 00:08:50;;;;;;;;;;;;;;;3.77;93.40;99679.00;5055007;28;19921;-75
2022/04/08 00:11:15;;;;;;;;;;;;;;;3.71;93.01;99680.09;5076507;28;19917;-75
2022/04/08 00:13:41;;;;;;;;;;;;;;;3.69;92.81;99679.28;5045005;28;20365;-75
2022/04/08 00:16:08;;;;;;;;;;;;;;;3.69;92.54;99683.66;5044824;28;20271;-76
2022/04/08 00:18:34;;;;;;;;;;;;;;;3.72;89.96;99666.19;5045164;28;20309;-74
2022/04/08 00:20:59;;;;;;;;;;;;;;;3.73;90.52;99674.84;5047813;28;20046;-75
2022/04/08 00:23:25;;;;;;;;;;;;;;;3.82;91.08;99684.03;5043223;28;20416;-74
2022/04/08 00:25:50;;;;;;;;;;;;;;;3.86;91.58;99680.41;5045951;28;19927;-75
2022/04/08 00:28:15;;;;;;;;;;;;;;;3.98;90.91;99682.56;5044186;28;20333;-75
2022/04/08 00:30:41;;;;;;;;;;;;;;;4.05;91.31;99687.50;5048055;28;19917;-75
2022/04/08 00:33:06;;;;;;;;;;;;;;;4.06;91.85;99690.06;5045454;28;19924;-75
2022/04/08 00:35:31;;;;;;;;;;;;;;;4.11;91.24;99688.13;5047355;28;19921;-74
2022/04/08 00:37:57;;;;;;;;;;;;;;;4.09;91.46;99696.88;5079198;28;20481;-75
2022/04/08 00:40:22;;;;;;;;;;;;;;;4.07;91.31;99691.75;5046191;28;20070;-74
2022/04/08 00:42:47;;;;;;;;;;;;;;;4.06;91.43;99707.41;5047482;28;19960;-75
2022/04/08 00:45:13;;;;;;;;;;;;;;;4.03;90.54;99716.16;5046431;28;19955;-75
2022/04/08 00:47:41;;;;;;;;;;;;;;;4.02;90.79;99711.88;5046724;28;20397;-75
2022/04/08 00:50:07;;;;;;;;;;;;;;;3.99;90.08;99711.97;5047039;28;20341;-74
2022/04/08 00:52:33;;;;;;;;;;;;;;;3.92;90.55;99720.91;5046392;28;19925;-75
2022/04/08 00:54:58;;;;;;;;;;;;;;;3.79;90.24;99718.78;5047866;28;19924;-75
2022/04/08 00:57:24;;;;;;;;;;;;;;;3.81;90.11;99727.38;5045099;28;19920;-75
2022/04/08 00:59:49;;;;;;;;;;;;;;;3.77;88.76;99720.56;5048268;28;19964;-76
2022/04/08 01:02:15;;;;;;;;;;;;;;;3.76;88.87;99710.25;5045096;28;19921;-75
2022/04/08 01:04:40;;;;;;;;;;;;;;;3.82;87.82;99715.22;5048452;28;19920;-76
2022/04/08 01:07:06;;;;;;;;;;;;;;;3.81;87.38;99711.78;5044726;28;19917;-75
2022/04/08 01:09:31;;;;;;;;;;;;;;;3.91;86.06;99717.50;5044266;28;20020;-76
2022/04/08 01:12:00;;;;;;;;;;;;;;;3.97;85.37;99712.03;5044701;28;19924;-76
2022/04/08 01:14:25;;;;;;;;;;;;;;;4.00;85.65;99718.88;5038330;28;20393;-75
2022/04/08 01:16:50;;;;;;;;;;;;;;;4.08;86.28;99719.41;5039551;28;19960;-75
2022/04/08 01:19:16;;;;;;;;;;;;;;;4.13;85.64;99714.91;5031201;28;19921;-76
2022/04/08 01:21:41;;;;;;;;;;;;;;;4.12;85.91;99709.78;5077918;28;19961;-75
2022/04/08 01:24:09;;;;;;;;;;;;;;;4.17;85.68;99724.28;5045054;28;19921;-76
2022/04/08 01:26:34;;;;;;;;;;;;;;;4.16;85.87;99730.41;5046321;28;19920;-76
2022/04/08 01:28:59;;;;;;;;;;;;;;;4.15;84.73;99717.44;5046128;28;19971;-75
2022/04/08 01:31:29;;;;;;;;;;;;;;;4.24;83.73;99716.25;5044742;28;19963;-74
2022/04/08 01:33:54;;;;;;;;;;;;;;;4.16;82.07;99722.59;5045959;28;19942;-75
2022/04/08 01:36:19;;;;;;;;;;;;;;;4.18;81.47;99715.59;5045384;28;21415;-75
2022/04/08 01:38:45;;;;;;;;;;;;;;;4.18;80.85;99710.38;5046205;28;19924;-75
2022/04/08 01:41:10;;;;;;;;;;;;;;;4.17;79.57;99708.69;5044265;28;20328;-75
2022/04/08 01:43:35;;;;;;;;;;;;;;;4.17;79.27;99703.50;5044969;28;19955;-76
2022/04/08 01:46:00;;;;;;;;;;;;;;;4.15;80.11;99714.84;5050049;28;20801;-74
2022/04/08 01:48:26;;;;;;;;;;;;;;;4.04;81.17;99723.06;5049420;28;23553;-76
2022/04/08 01:50:51;;;;;;;;;;;;;;;4.04;80.72;99715.25;5050172;28;20256;-77
2022/04/08 01:53:17;;;;;;;;;;;;;;;4.08;81.36;99711.63;5047293;28;19925;-75
2022/04/08 01:55:43;;;;;;;;;;;;;;;4.07;82.45;99724.69;5049570;28;19924;-75
2022/04/08 01:58:08;;;;;;;;;;;;;;;3.96;83.97;99738.94;5048508;28;19928;-74
2022/04/08 02:00:34;;;;;;;;;;;;;;;3.93;84.98;99753.78;5080275;28;19917;-76
2022/04/08 02:03:00;;;;;;;;;;;;;;;3.86;85.29;99760.97;5050582;28;19921;-76
2022/04/08 02:05:26;;;;;;;;;;;;;;;3.90;85.80;99762.56;5037543;28;20356;-74
2022/04/08 02:07:53;;;;;;;;;;;;;;;3.85;86.32;99767.06;5060532;28;19953;-76
2022/04/08 02:10:18;;;;;;;;;;;;;;;3.93;86.50;99772.81;5043553;28;19925;-75
2022/04/08 02:12:44;;;;;;;;;;;;;;;3.93;87.11;99774.59;5050870;28;19997;-74
2022/04/08 02:15:09;;;;;;;;;;;;;;;3.95;87.50;99784.00;5048242;28;19963;-74
2022/04/08 02:17:35;;;;;;;;;;;;;;;4.05;88.01;99775.88;5064345;28;19920;-75
2022/04/08 02:20:00;;;;;;;;;;;;;;;4.11;88.50;99799.88;5049670;28;19955;-75
2022/04/08 02:22:29;;;;;;;;;;;;;;;4.18;88.46;99801.38;5048899;28;20329;-75
2022/04/08 02:24:55;;;;;;;;;;;;;;;4.06;89.07;99809.63;5051134;28;19927;-74
2022/04/08 02:27:23;;;;;;;;;;;;;;;4.00;89.89;99817.63;5046846;28;19933;-76
2022/04/08 02:29:48;;;;;;;;;;;;;;;3.99;91.01;99816.78;5049472;28;20456;-75
2022/04/08 02:32:14;;;;;;;;;;;;;;;3.88;91.09;99811.13;5047536;28;19956;-74
2022/04/08 02:34:39;;;;;;;;;;;;;;;3.81;92.28;99810.50;5047473;28;19963;-74
2022/04/08 02:37:05;;;;;;;;;;;;;;;3.81;92.78;99804.44;5048414;28;19916;-74
2022/04/08 02:39:30;;;;;;;;;;;;;;;3.83;91.90;99818.22;5047756;28;20346;-75
2022/04/08 02:41:57;;;;;;;;;;;;;;;3.85;92.62;99814.69;5062331;28;19928;-75
2022/04/08 02:44:22;;;;;;;;;;;;;;;3.89;93.00;99817.16;5048434;28;19917;-75
2022/04/08 02:46:47;;;;;;;;;;;;;;;3.89;93.09;99840.56;5046709;28;19971;-74
2022/04/08 02:49:12;;;;;;;;;;;;;;;3.87;91.68;99822.44;5079614;28;19920;-74
2022/04/08 02:51:38;;;;;;;;;;;;;;;3.79;92.10;99821.84;5048307;28;20025;-74
2022/04/08 02:54:03;;;;;;;;;;;;;;;3.71;93.29;99828.16;5048372;28;20577;-75
2022/04/08 02:56:28;;;;;;;;;;;;;;;3.72;92.85;99818.63;5047638;28;19924;-75
2022/04/08 02:58:54;;;;;;;;;;;;;;;3.62;93.41;99823.28;5048893;28;20039;-75
2022/04/08 03:01:20;;;;;;;;;;;;;;;3.54;94.15;99825.31;5046936;28;19917;-76
2022/04/08 03:03:45;;;;;;;;;;;;;;;3.47;94.84;99832.44;5048997;28;19958;-76
2022/04/08 03:06:10;;;;;;;;;;;;;;;3.40;95.06;99828.38;5047166;28;20392;-75
2022/04/08 03:08:36;;;;;;;;;;;;;;;3.34;95.85;99838.94;5080773;28;19940;-76
2022/04/08 03:11:01;;;;;;;;;;;;;;;3.31;96.12;99833.88;5048555;28;19925;-77
2022/04/08 03:13:26;;;;;;;;;;;;;;;3.34;96.99;99837.22;5062669;28;20537;-75
2022/04/08 03:15:52;;;;;;;;;;;;;;;3.36;97.17;99840.56;5048301;28;19947;-76
2022/04/08 03:18:17;;;;;;;;;;;;;;;3.40;97.28;99847.38;5047339;28;19964;-75
2022/04/08 03:20:43;;;;;;;;;;;;;;;3.44;97.43;99847.28;5080472;28;19963;-75
2022/04/08 03:23:09;;;;;;;;;;;;;;;3.45;97.45;99844.63;5077868;28;19954;-76
2022/04/08 03:25:34;;;;;;;;;;;;;;;3.61;96.72;99837.16;5079928;28;19995;-75
2022/04/08 03:28:00;;;;;;;;;;;;;;;3.66;95.22;99834.41;5048552;28;20258;-75
2022/04/08 03:30:27;;;;;;;;;;;;;;;3.69;94.93;99827.34;5047283;28;19917;-74
2022/04/08 03:32:53;;;;;;;;;;;;;;;3.76;93.96;99827.16;5045895;28;19954;-75
2022/04/08 03:35:18;;;;;;;;;;;;;;;3.79;93.71;99827.88;5044789;28;20015;-75
2022/04/08 03:37:43;;;;;;;;;;;;;;;3.80;93.73;99834.78;5046305;28;19928;-75
2022/04/08 03:40:09;;;;;;;;;;;;;;;3.82;94.06;99835.59;5047171;28;20430;-75
2022/04/08 03:42:34;;;;;;;;;;;;;;;3.74;94.19;99839.34;5047092;28;19921;-76
2022/04/08 03:45:00;;;;;;;;;;;;;;;3.70;94.52;99842.03;5048309;28;19917;-76
2022/04/08 03:47:25;;;;;;;;;;;;;;;3.71;94.37;99838.53;5046171;28;19982;-76
2022/04/08 03:49:50;;;;;;;;;;;;;;;3.71;94.24;99835.94;5048198;28;20236;-75
2022/04/08 03:52:16;;;;;;;;;;;;;;;3.73;94.82;99841.09;5047003;28;20374;-75
2022/04/08 03:54:41;;;;;;;;;;;;;;;3.78;94.79;99833.97;5046376;28;20289;-75
2022/04/08 03:57:06;;;;;;;;;;;;;;;3.77;94.85;99837.47;5047536;28;19917;-76
2022/04/08 03:59:31;;;;;;;;;;;;;;;3.74;94.43;99832.41;5048273;28;19925;-76
2022/04/08 04:01:57;;;;;;;;;;;;;;;3.68;94.93;99828.28;5044988;28;19971;-75
2022/04/08 04:04:23;;;;;;;;;;;;;;;3.65;94.99;99833.56;5043268;28;19921;-75
2022/04/08 04:06:48;;;;;;;;;;;;;;;3.64;95.17;99828.44;5043217;28;19966;-75
2022/04/08 04:09:14;;;;;;;;;;;;;;;3.61;95.70;99829.38;5075080;28;20591;-75
2022/04/08 04:11:39;;;;;;;;;;;;;;;3.63;95.60;99831.94;5044085;28;20508;-76
2022/04/08 04:14:06;;;;;;;;;;;;;;;3.61;95.41;99824.19;5046416;28;19924;-76
2022/04/08 04:16:32;;;;;;;;;;;;;;;3.56;95.34;99820.91;5044340;28;19925;-74
2022/04/08 04:18:57;;;;;;;;;;;;;;;3.51;95.81;99828.84;5049311;28;19925;-75
2022/04/08 04:21:22;;;;;;;;;;;;;;;3.49;96.11;99830.66;5046098;28;20000;-74
2022/04/08 04:23:48;;;;;;;;;;;;;;;3.42;96.40;99829.13;5046916;28;20016;-75
2022/04/08 04:26:13;;;;;;;;;;;;;;;3.48;96.55;99834.16;5045271;28;19921;-74
2022/04/08 04:28:38;;;;;;;;;;;;;;;3.45;96.40;99836.00;5041652;28;20043;-74
2022/04/08 04:31:04;;;;;;;;;;;;;;;3.48;96.53;99839.34;5045199;28;19977;-75
2022/04/08 04:33:30;;;;;;;;;;;;;;;3.44;96.64;99834.31;5045197;28;19921;-75
2022/04/08 04:35:55;;;;;;;;;;;;;;;3.47;97.08;99834.22;5047659;28;19921;-74
2022/04/08 04:38:21;;;;;;;;;;;;;;;3.42;96.99;99836.94;5045285;28;20039;-75
2022/04/08 04:40:47;;;;;;;;;;;;;;;3.40;97.17;99839.59;5048171;28;19920;-75
2022/04/08 04:43:12;;;;;;;;;;;;;;;3.37;97.26;99841.44;5045812;28;20143;-75
2022/04/08 04:45:39;;;;;;;;;;;;;;;3.38;97.32;99837.97;5045425;28;19921;-76
2022/04/08 04:48:05;;;;;;;;;;;;;;;3.37;97.45;99844.03;5045134;28;19921;-76
2022/04/08 04:50:30;;;;;;;;;;;;;;;3.38;97.44;99853.53;5046032;28;19996;-76
2022/04/08 04:52:55;;;;;;;;;;;;;;;3.40;97.15;99847.38;5077609;28;20596;-76
2022/04/08 04:55:21;;;;;;;;;;;;;;;3.37;98.04;99846.63;5044645;28;20003;-76
2022/04/08 04:57:46;;;;;;;;;;;;;;;3.37;97.88;99844.88;5045019;28;19948;-76
2022/04/08 05:00:11;;;;;;;;;;;;;;;3.47;97.93;99849.78;5046261;28;19933;-77
2022/04/08 05:02:37;;;;;;;;;;;;;;;3.52;97.66;99840.94;5045876;28;19928;-74
2022/04/08 05:05:02;;;;;;;;;;;;;;;3.59;96.89;99843.31;5046217;28;20111;-73
2022/04/08 05:07:27;;;;;;;;;;;;;;;3.66;97.13;99840.47;5044957;28;19928;-73
2022/04/08 05:09:53;;;;;;;;;;;;;;;3.70;96.33;99833.41;5061271;28;19935;-73
2022/04/08 05:12:18;;;;;;;;;;;;;;;3.74;95.35;99832.41;5045794;28;19974;-74
2022/04/08 05:14:43;;;;;;;;;;;;;;;3.71;95.46;99829.91;5046402;28;19920;-75
2022/04/08 05:17:09;;;;;;;;;;;;;;;3.70;95.13;99825.63;5061039;28;19924;-75
2022/04/08 05:19:34;;;;;;;;;;;;;;;3.69;95.30;99835.13;5047263;28;19917;-75
2022/04/08 05:21:59;;;;;;;;;;;;;;;3.71;95.17;99835.94;5049211;28;19975;-76
2022/04/08 05:24:24;;;;;;;;;;;;;;;3.69;94.66;99831.72;5049404;28;19921;-75
2022/04/08 05:26:50;;;;;;;;;;;;;;;3.69;95.17;99842.09;5049639;28;19916;-74
2022/04/08 05:29:15;;;;;;;;;;;;;;;3.72;95.21;99834.22;5048685;28;20547;-74
2022/04/08 05:31:41;;;;;;;;;;;;;;;3.73;94.96;99835.91;5047752;28;20704;-74
2022/04/08 05:34:06;;;;;;;;;;;;;;;3.78;95.16;99825.34;5049715;28;19921;-75
2022/04/08 05:36:32;;;;;;;;;;;;;;;3.92;93.85;99830.88;5049250;28;19974;-75
2022/04/08 05:38:57;;;;;;;;;;;;;;;3.98;93.35;99830.69;5051995;28;19917;-76
2022/04/08 05:41:22;;;;;;;;;;;;;;;4.09;92.58;99832.88;5049760;28;20357;-73
2022/04/08 05:43:47;;;;;;;;;;;;;;;4.14;92.41;99820.59;5050858;28;19971;-75
2022/04/08 05:46:13;;;;;;;;;;;;;;;4.18;91.97;99816.97;5050906;28;19921;-74
2022/04/08 05:48:38;;;;;;;;;;;;;;;4.20;92.60;99823.84;5082390;28;19971;-74
2022/04/08 05:51:04;;;;;;;;;;;;;;;4.24;91.42;99815.91;5050242;28;19918;-73
2022/04/08 05:53:29;;;;;;;;;;;;;;;4.26;91.32;99815.84;5047806;28;20007;-76
2022/04/08 05:55:55;;;;;;;;;;;;;;;4.29;91.00;99813.97;5053335;28;19955;-78
2022/04/08 05:58:20;;;;;;;;;;;;;;;4.37;91.37;99805.00;5051452;28;19929;-77
2022/04/08 06:00:46;;;;;;;;;;;;;;;4.48;91.21;99805.44;5051408;28;19924;-78
2022/04/08 06:03:11;;;;;;;;;;;;;;;4.52;91.31;99812.25;5052212;28;19924;-78
2022/04/08 06:05:36;;;;;;;;;;;;;;;4.57;91.20;99812.94;5052645;28;20398;-78
2022/04/08 06:08:02;;;;;;;;;;;;;;;4.65;90.43;99804.81;5052400;28;20373;-77
2022/04/08 06:10:27;;;;;;;;;;;;;;;4.77;90.76;99809.53;5051547;28;19916;-77
2022/04/08 06:12:53;;;;;;;;;;;;;;;4.88;90.25;99810.84;5053707;28;19927;-78
2022/04/08 06:15:19;;;;;;;;;;;;;;;4.92;90.91;99809.84;5051314;28;19916;-77
2022/04/08 06:17:45;;;;;;;;;;;;;;;4.93;90.74;99814.13;5051152;28;19921;-77
2022/04/08 06:20:11;;;;;;;;;;;;;;;4.97;90.64;99814.84;5049662;28;20299;-77
2022/04/08 06:22:39;;;;;;;;;;;;;;;5.04;90.44;99816.28;5067111;28;20382;-77
2022/04/08 06:25:05;;;;;;;;;;;;;;;5.15;90.04;99811.50;5052137;28;19917;-76
2022/04/08 06:27:31;;;;;;;;;;;;;;;5.26;89.15;99808.47;5051859;28;20713;-78
2022/04/08 06:29:56;;;;;;;;;;;;;;;5.44;88.56;99800.78;5050600;28;20015;-78
2022/04/08 06:32:22;;;;;;;;;;;;;;;5.44;87.21;99792.97;5049019;28;19921;-77
2022/04/08 06:34:48;;;;;;;;;;;;;;;5.64;87.27;99807.75;5050966;28;19916;-77
2022/04/08 06:37:13;;;;;;;;;;;;;;;5.68;87.08;99811.91;5050313;28;19967;-77
2022/04/08 06:39:38;;;;;;;;;;;;;;;5.72;87.29;99801.31;5049783;28;19932;-76
2022/04/08 06:42:04;;;;;;;;;;;;;;;5.85;87.19;99805.94;5050086;28;19928;-77
2022/04/08 06:44:29;;;;;;;;;;;;;;;5.95;87.38;99809.00;5081455;28;19924;-76
2022/04/08 06:46:54;;;;;;;;;;;;;;;6.15;86.59;99797.72;5051303;28;19956;-76
2022/04/08 06:49:20;;;;;;;;;;;;;;;6.17;86.10;99801.94;5048899;28;19924;-75
2022/04/08 06:51:46;;;;;;;;;;;;;;;6.28;84.65;99793.66;5076004;28;20003;-77
2022/04/08 06:54:11;;;;;;;;;;;;;;;6.40;84.03;99789.63;5041065;28;20032;-76
2022/04/08 06:56:36;;;;;;;;;;;;;;;6.54;82.50;99788.13;5030093;28;20408;-77
2022/04/08 06:59:01;;;;;;;;;;;;;;;6.57;83.56;99787.97;5032744;28;19917;-76
2022/04/08 07:01:27;;;;;;;;;;;;;;;6.79;82.99;99788.63;5028883;28;19986;-75
2022/04/08 07:03:54;;;;;;;;;;;;;;;7.01;81.80;99779.75;5034743;28;20336;-77
2022/04/08 07:06:20;;;;;;;;;;;;;;;7.26;81.21;99771.56;5029186;28;19956;-76
2022/04/08 07:08:45;;;;;;;;;;;;;;;7.33;79.96;99769.47;5033849;28;19921;-75
2022/04/08 07:11:10;;;;;;;;;;;;;;;7.42;78.18;99763.78;5029257;28;19921;-76
2022/04/08 07:13:38;;;;;;;;;;;;;;;7.70;78.44;99759.72;5031407;28;19923;-77
2022/04/08 07:16:03;;;;;;;;;;;;;;;8.25;76.21;99747.25;5080974;28;20135;-75
2022/04/08 07:18:28;;;;;;;;;;;;;;;8.57;75.64;99749.03;5048381;28;20381;-76
2022/04/08 07:20:54;;;;;;;;;;;;;;;8.69;72.21;99730.03;5049463;28;19921;-75
2022/04/08 07:23:19;;;;;;;;;;;;;;;8.37;73.26;99743.13;5048395;28;19929;-77
2022/04/08 07:25:44;;;;;;;;;;;;;;;8.77;73.40;99738.28;5048536;28;20321;-74
2022/04/08 07:28:10;;;;;;;;;;;;;;;9.15;70.74;99736.16;5049533;28;20004;-78
2022/04/08 07:30:35;;;;;;;;;;;;;;;9.17;70.38;99731.66;4982553;28;1911899;-76
2022/04/08 07:33:03;;;;;;;;;;;;;;;10.38;68.09;99709.44;5045590;28;19935;-76
2022/04/08 07:35:30;;;;;;;;;;;;;;;10.23;66.12;99705.97;5049221;28;19942;-77
2022/04/08 07:37:56;;;;;;;;;;;;;;;10.63;64.67;99706.03;5047079;28;20328;-78
2022/04/08 07:40:22;;;;;;;;;;;;;;;11.06;62.07;99691.84;5047182;28;19998;-77
2022/04/08 07:42:47;;;;;;;;;;;;;;;11.94;60.67;99697.25;5046525;28;20539;-77
2022/04/08 07:45:13;;;;;;;;;;;;;;;12.73;57.39;99692.44;5048441;28;19967;-77
2022/04/08 07:47:39;;;;;;;;;;;;;;;12.32;56.99;99686.63;5049144;28;20435;-78
2022/04/08 07:50:05;;;;;;;;;;;;;;;12.43;56.64;99696.38;5043531;28;19947;-78
2022/04/08 07:52:31;;;;;;;;;;;;;;;13.08;54.71;99778.59;5048847;28;19963;-77
2022/04/08 07:54:56;;;;;;;;;;;;;;;14.14;51.73;99789.09;5049438;28;20325;-76
2022/04/08 07:57:21;;;;;;;;;;;;;;;13.27;51.82;99801.81;5048418;28;20282;-76
2022/04/08 07:59:47;;;;;;;;;;;;;;;13.68;52.54;99804.91;5048283;28;19921;-75
2022/04/08 08:02:12;;;;;;;;;;;;;;;14.09;52.11;99807.13;5052583;28;19929;-77
2022/04/08 08:04:38;;;;;;;;;;;;;;;14.00;53.06;99806.84;5048510;28;19917;-78
2022/04/08 08:07:03;;;;;;;;;;;;;;;13.73;52.16;99804.56;5050126;28;19924;-76
2022/04/08 08:09:29;;;;;;;;;;;;;;;12.36;55.50;99821.56;5048753;28;19921;-78
2022/04/08 08:11:54;;;;;;;;;;;;;;;11.34;58.48;99820.63;5051192;28;19917;-75
2022/04/08 08:14:19;;;;;;;;;;;;;;;10.89;59.85;99829.63;5044413;28;19927;-78
2022/04/08 08:16:44;;;;;;;;;;;;;;;10.59;61.56;99832.41;5044418;28;20000;-76
2022/04/08 08:19:11;;;;;;;;;;;;;;;11.13;59.97;99821.09;5075889;28;19921;-78
2022/04/08 08:21:36;;;;;;;;;;;;;;;12.44;55.59;99802.59;5043768;28;19966;-78
2022/04/08 08:24:01;;;;;;;;;;;;;;;12.71;54.25;99805.03;5045438;28;20340;-78
2022/04/08 08:26:27;;;;;;;;;;;;;;;13.72;52.98;99810.81;5045218;28;19943;-77
2022/04/08 08:28:53;;;;;;;;;;;;;;;13.06;53.04;99806.88;5076331;28;19921;-77
2022/04/08 08:31:18;;;;;;;;;;;;;;;11.81;56.34;99823.59;5046137;28;19924;-77
2022/04/08 08:33:43;;;;;;;;;;;;;;;11.23;57.20;99816.91;5048027;28;19927;-76
2022/04/08 08:36:24;;;;;;;;;;;;;;;10.61;58.34;99838.41;5048333;28;20353;-79
2022/04/08 08:38:51;;;;;;;;;;;;;;;10.97;58.96;99816.81;5041372;28;20358;-77
2022/04/08 08:41:18;;;;;;;;;;;;;;;12.73;54.29;99797.84;5048044;28;20560;-77
2022/04/08 08:43:44;;;;;;;;;;;;;;;13.63;50.50;99790.38;5042459;28;19925;-76
2022/04/08 08:46:09;;;;;;;;;;;;;;;14.65;49.56;99796.50;5046715;28;20083;-76
2022/04/08 08:48:35;;;;;;;;;;;;;;;14.73;47.47;99790.59;5045094;28;19951;-78
2022/04/08 08:51:01;;;;;;;;;;;;;;;14.96;46.99;99788.72;5049052;28;19947;-77
2022/04/08 08:53:29;;;;;;;;;;;;;;;14.15;49.59;99806.63;5035236;28;19953;-77
2022/04/08 08:55:54;;;;;;;;;;;;;;;13.67;50.79;99811.16;5049163;28;19924;-75
2022/04/08 08:58:19;;;;;;;;;;;;;;;13.82;50.58;99803.88;5048162;28;20286;-75
2022/04/08 09:00:45;;;;;;;;;;;;;;;13.97;50.51;99807.13;5047918;28;19925;-74
2022/04/08 09:03:10;;;;;;;;;;;;;;;13.60;50.94;99802.03;5047879;28;19995;-75
2022/04/08 09:05:40;;;;;;;;;;;;;;;12.78;52.64;99811.56;5048006;28;20007;-77
2022/04/08 09:08:05;;;;;;;;;;;;;;;12.40;55.00;99809.88;5047463;28;19916;-77
2022/04/08 09:10:33;;;;;;;;;;;;;;;12.13;56.32;99808.22;5048933;28;19921;-78
2022/04/08 09:13:00;;;;;;;;;;;;;;;11.63;56.03;99810.72;5050224;28;19936;-77
2022/04/08 09:15:25;;;;;;;;;;;;;;;11.68;55.95;99803.38;5028731;28;20344;-76
2022/04/08 09:17:51;;;;;;;;;;;;;;;12.25;55.32;99796.00;5041956;28;19950;-76
2022/04/08 09:20:17;;;;;;;;;;;;;;;12.74;54.67;99793.41;5045478;28;19974;-76
2022/04/08 09:22:42;;;;;;;;;;;;;;;12.71;53.82;99798.94;5045592;28;19924;-79
2022/04/08 09:25:10;;;;;;;;;;;;;;;12.37;55.09;99803.03;5048357;28;20067;-76
2022/04/08 09:27:36;;;;;;;;;;;;;;;12.82;54.45;99799.81;5048501;28;19959;-76
2022/04/08 09:30:02;;;;;;;;;;;;;;;12.95;54.02;99801.56;5048160;28;19933;-76
2022/04/08 09:32:28;;;;;;;;;;;;;;;13.22;53.57;99792.56;5048837;28;20255;-76
2022/04/08 09:34:53;;;;;;;;;;;;;;;13.35;51.07;99789.84;5047290;28;20499;-75
2022/04/08 09:37:18;;;;;;;;;;;;;;;12.91;50.50;99781.63;5046042;28;19921;-76
2022/04/08 09:39:59;;;;;;;;;;;;;;;12.20;52.39;99796.31;5044153;28;20006;-74
2022/04/08 09:42:24;;;;;;;;;;;;;;;12.16;53.87;99808.00;5041438;28;19925;-80
2022/04/08 09:44:51;;;;;;;;;;;;;;;12.52;53.71;99806.38;5045601;28;19928;-78
2022/04/08 09:47:16;;;;;;;;;;;;;;;11.99;54.87;99813.63;5047353;28;20002;-78
2022/04/08 09:49:41;;;;;;;;;;;;;;;11.09;58.68;99809.91;5045764;28;19999;-77
2022/04/08 09:52:07;;;;;;;;;;;;;;;11.11;58.81;99794.06;5046010;28;20424;-77
2022/04/08 09:54:33;;;;;;;;;;;;;;;10.86;58.61;99790.41;5041310;28;19991;-78
2022/04/08 09:57:06;;;;;;;;;;;;;;;11.01;57.14;99783.28;5048618;28;19920;-75
2022/04/08 09:59:35;;;;;;;;;;;;;;;10.70;56.55;99781.81;5043095;28;20397;-74
2022/04/08 10:02:02;;;;;;;;;;;;;;;10.86;57.33;99784.31;5078323;28;19921;-76
2022/04/08 10:04:28;;;;;;;;;;;;;;;11.26;57.42;99786.94;5044587;28;19920;-74
2022/04/08 10:06:53;;;;;;;;;;;;;;;11.67;56.31;99785.09;5045011;28;20008;-76
2022/04/08 10:09:21;;;;;;;;;;;;;;;12.05;55.21;99784.22;5048826;28;19952;-75
2022/04/08 10:11:51;;;;;;;;;;;;;;;12.10;55.25;99784.75;5048738;28;20024;-75
2022/04/08 10:14:24;;;;;;;;;;;;;;;12.02;54.30;99784.44;5050725;28;20023;-78
2022/04/08 10:16:52;;;;;;;;;;;;;;;12.89;52.28;99776.47;5051422;28;19931;-76
2022/04/08 10:19:18;;;;;;;;;;;;;;;13.04;51.11;99784.22;5051203;28;19917;-76
2022/04/08 10:21:43;;;;;;;;;;;;;;;13.63;49.99;99783.31;5054485;28;20432;-77
2022/04/08 10:24:10;;;;;;;;;;;;;;;14.07;48.30;99786.94;5054155;28;19951;-77
2022/04/08 10:26:35;;;;;;;;;;;;;;;14.07;47.72;99794.88;5053557;28;19917;-79
2022/04/08 10:29:08;;;;;;;;;;;;;;;13.52;49.78;99805.25;5052021;28;20262;-76
2022/04/08 10:31:34;;;;;;;;;;;;;;;13.15;50.57;99810.63;5057568;28;20020;-78
2022/04/08 10:34:00;;;;;;;;;;;;;;;12.55;51.54;99809.72;5054483;28;19959;-78
2022/04/08 10:36:32;;;;;;;;;;;;;;;12.26;53.77;99831.06;5052670;28;19921;-76
2022/04/08 10:39:13;;;;;;;;;;;;;;;11.72;54.21;99828.56;5038634;28;19925;-77
2022/04/08 10:41:46;;;;;;;;;;;;;;;11.65;55.48;99836.97;5033434;28;19924;-74
2022/04/08 10:44:12;;;;;;;;;;;;;;;11.72;54.33;99825.06;5032701;28;19917;-76
2022/04/08 10:46:47;;;;;;;;;;;;;;;11.26;55.40;99826.38;5041343;28;19917;-77
2022/04/08 10:49:12;;;;;;;;;;;;;;;11.06;56.00;99817.16;5048385;28;19925;-76
2022/04/08 10:51:43;;;;;;;;;;;;;;;11.23;55.45;99813.41;5047614;28;19916;-76
2022/04/08 10:54:08;;;;;;;;;;;;;;;11.59;54.88;99818.00;5049510;28;19935;-76
2022/04/08 10:56:34;;;;;;;;;;;;;;;11.28;55.99;99812.16;5050074;28;19924;-76
2022/04/08 10:59:00;;;;;;;;;;;;;;;10.95;57.03;99823.97;5050231;28;19923;-78
2022/04/08 11:01:26;;;;;;;;;;;;;;;10.80;58.80;99835.47;5029613;28;20007;-78
2022/04/08 11:03:52;;;;;;;;;;;;;;;10.23;59.36;99839.84;5031139;28;19925;-75
2022/04/08 11:06:18;;;;;;;;;;;;;;;9.91;59.98;99834.78;5046290;28;19967;-75
2022/04/08 11:08:43;;;;;;;;;;;;;;;9.67;60.21;99824.81;5047155;28;19917;-75
2022/04/08 11:11:09;;;;;;;;;;;;;;;9.83;59.78;99816.88;5084032;28;20003;-76
2022/04/08 11:13:34;;;;;;;;;;;;;;;9.90;61.04;99825.22;5045801;28;20293;-77
2022/04/08 11:16:00;;;;;;;;;;;;;;;10.39;59.18;99807.41;5038192;28;21438;-77
2022/04/08 11:18:25;;;;;;;;;;;;;;;10.73;58.92;99802.63;5035117;28;19921;-76
2022/04/08 11:20:50;;;;;;;;;;;;;;;11.06;57.20;99788.25;5047397;28;20577;-76
2022/04/08 11:23:32;;;;;;;;;;;;;;;11.29;56.62;99790.19;5043233;28;20325;-75
2022/04/08 11:25:58;;;;;;;;;;;;;;;11.32;54.92;99778.63;5049248;28;19921;-77
2022/04/08 11:28:23;;;;;;;;;;;;;;;11.14;54.92;99781.53;5050824;28;19927;-74
2022/04/08 11:30:54;;;;;;;;;;;;;;;11.23;53.53;99780.09;5049592;28;19925;-77
2022/04/08 11:33:19;;;;;;;;;;;;;;;11.52;53.96;99782.53;5050951;28;20035;-74
2022/04/08 11:35:45;;;;;;;;;;;;;;;12.06;54.38;99785.91;5051221;28;20353;-79
2022/04/08 11:38:11;;;;;;;;;;;;;;;12.14;52.54;99780.13;5048525;28;20286;-76
2022/04/08 11:40:36;;;;;;;;;;;;;;;12.59;52.41;99780.41;5051117;28;19916;-75
2022/04/08 11:43:02;;;;;;;;;;;;;;;12.58;52.60;99778.72;5049496;28;19943;-75
2022/04/08 11:45:27;;;;;;;;;;;;;;;12.38;52.41;99772.25;5049710;28;19924;-74
2022/04/08 11:47:52;;;;;;;;;;;;;;;12.25;53.25;99774.94;5049370;28;20031;-76
2022/04/08 11:50:25;;;;;;;;;;;;;;;12.68;53.61;99771.84;5049615;28;19925;-77
2022/04/08 11:52:52;;;;;;;;;;;;;;;12.77;53.51;99765.06;5049358;28;19964;-76
2022/04/08 11:55:22;;;;;;;;;;;;;;;12.64;52.19;99759.81;5049317;28;19921;-75
2022/04/08 11:57:47;;;;;;;;;;;;;;;12.33;52.77;99763.84;5043832;28;19916;-76
2022/04/08 12:00:12;;;;;;;;;;;;;;;12.24;53.68;99769.78;5059571;28;19986;-77
2022/04/08 12:02:38;;;;;;;;;;;;;;;12.27;52.01;99753.75;5050589;28;19970;-75
2022/04/08 12:05:03;;;;;;;;;;;;;;;12.06;53.23;99756.97;5049943;28;19917;-77
2022/04/08 12:07:29;;;;;;;;;;;;;;;12.16;53.82;99765.88;5051795;28;19921;-78
2022/04/08 12:09:55;;;;;;;;;;;;;;;12.23;53.20;99754.94;5049167;28;20313;-76
2022/04/08 12:12:24;;;;;;;;;;;;;;;11.90;53.84;99765.91;5050023;28;19947;-76
2022/04/08 12:14:50;;;;;;;;;;;;;;;11.71;54.36;99757.59;5081207;28;19940;-76
2022/04/08 12:17:15;;;;;;;;;;;;;;;11.71;54.72;99754.97;5049669;28;19917;-76
2022/04/08 12:19:41;;;;;;;;;;;;;;;11.62;55.96;99774.03;5049229;28;20385;-76
2022/04/08 12:22:15;;;;;;;;;;;;;;;11.17;54.92;99763.88;5049114;28;19921;-77
2022/04/08 12:24:42;;;;;;;;;;;;;;;11.05;55.38;99765.53;5064726;28;19956;-75
2022/04/08 12:27:11;;;;;;;;;;;;;;;11.42;55.39;99763.91;5049726;28;19970;-77
2022/04/08 12:29:39;;;;;;;;;;;;;;;11.49;55.09;99766.13;5049830;28;19925;-77
2022/04/08 12:32:11;;;;;;;;;;;;;;;11.36;54.81;99768.72;5045722;28;19971;-77
2022/04/08 12:34:36;;;;;;;;;;;;;;;11.16;56.00;99773.53;5049647;28;19917;-77
2022/04/08 12:37:01;;;;;;;;;;;;;;;11.47;54.98;99774.09;5048485;28;19927;-76
2022/04/08 12:39:27;;;;;;;;;;;;;;;11.50;54.74;99773.91;5050802;28;19940;-76
2022/04/08 12:41:57;;;;;;;;;;;;;;;11.56;55.84;99776.13;5048879;28;19931;-76
2022/04/08 12:44:22;;;;;;;;;;;;;;;11.43;54.98;99772.66;5048778;28;20016;-76
2022/04/08 12:46:49;;;;;;;;;;;;;;;10.96;54.35;99767.00;5048663;28;20073;-76